Time;durP1;ratioP1;P1;durP2;ratioP2;P2;SDS_P1;SDS_P2;PMS_P1;PMS_P2;Temp;Humidity;BMP_temperature;BMP_pressure;BME280_temperature;BME280_humidity;BME280_pressure;Samples;Min_cycle;Max_cycle;Signal;HPM_P1;HPM_P2
2021/12/07 00:01:42;;;;;;;100.10;46.28;;;1.20;99.90;;;;;;5061799;28;20033;-77
2021/12/07 00:04:08;;;;;;;103.53;45.00;;;1.20;99.90;;;;;;5056598;28;20025;-77
2021/12/07 00:06:35;;;;;;;106.90;47.38;;;1.20;99.90;;;;;;5064971;28;20021;-77
2021/12/07 00:09:04;;;;;;;94.55;44.55;;;1.20;99.90;;;;;;5057424;28;20033;-77
2021/12/07 00:11:30;;;;;;;107.75;47.78;;;1.20;99.90;;;;;;5063909;28;20020;-77
2021/12/07 00:13:58;;;;;;;97.63;46.90;;;1.20;99.90;;;;;;5062087;28;20097;-77
2021/12/07 00:16:25;;;;;;;96.55;44.58;;;1.20;99.90;;;;;;5074986;28;20027;-78
2021/12/07 00:18:52;;;;;;;107.60;48.72;;;1.20;99.90;;;;;;5069448;28;20481;-77
2021/12/07 00:21:19;;;;;;;97.57;46.88;;;1.30;99.90;;;;;;5056015;28;20028;-77
2021/12/07 00:23:47;;;;;;;95.70;45.35;;;1.30;99.90;;;;;;5060926;28;20024;-77
2021/12/07 00:26:13;;;;;;;103.35;44.58;;;1.30;99.90;;;;;;5057240;28;20035;-78
2021/12/07 00:28:40;;;;;;;97.10;47.17;;;1.20;99.90;;;;;;5055719;28;20068;-78
2021/12/07 00:31:13;;;;;;;107.38;47.22;;;1.30;99.90;;;;;;5061716;28;20533;-78
2021/12/07 00:33:52;;;;;;;98.30;45.72;;;1.30;99.90;;;;;;5055591;28;20020;-77
2021/12/07 00:36:18;;;;;;;93.45;44.35;;;1.40;99.90;;;;;;5064526;28;20029;-77
2021/12/07 00:38:45;;;;;;;103.00;45.90;;;1.40;99.90;;;;;;5037366;28;20032;-77
2021/12/07 00:41:10;;;;;;;101.40;46.33;;;1.30;99.90;;;;;;5056857;28;20114;-77
2021/12/07 00:43:36;;;;;;;103.15;47.53;;;1.30;99.90;;;;;;5042914;28;20476;-78
2021/12/07 00:46:03;;;;;;;98.50;42.60;;;1.30;99.90;;;;;;5072064;28;20507;-78
2021/12/07 00:48:29;;;;;;;92.15;44.70;;;1.30;99.90;;;;;;5054054;28;20094;-77
2021/12/07 00:50:57;;;;;;;91.68;43.50;;;1.30;99.90;;;;;;5055118;28;20492;-77
2021/12/07 00:53:27;;;;;;;94.72;41.15;;;1.30;99.90;;;;;;5037794;28;20776;-78
2021/12/07 00:55:57;;;;;;;88.43;43.35;;;1.30;99.90;;;;;;5064998;28;20123;-77
2021/12/07 00:58:24;;;;;;;86.95;40.22;;;1.30;99.90;;;;;;5023455;28;20405;-77
2021/12/07 01:01:11;;;;;;;94.07;42.47;;;1.30;99.90;;;;;;5040467;28;20025;-77
2021/12/07 01:03:38;;;;;;;92.60;42.83;;;1.30;99.90;;;;;;5039727;28;20028;-77
2021/12/07 01:25:09;;;;;;;91.22;40.50;;;1.20;99.90;;;;;;5049189;28;20405;-77
2021/12/07 01:27:36;;;;;;;74.65;37.65;;;1.20;99.90;;;;;;5039729;28;20033;-77
2021/12/07 01:30:19;;;;;;;86.35;40.10;;;1.20;99.90;;;;;;5036430;28;20389;-77
2021/12/07 01:40:48;;;;;;;81.00;36.22;;;1.30;99.90;;;;;;5033933;28;20056;-78
2021/12/07 01:46:39;;;;;;;86.20;39.72;;;1.20;99.90;;;;;;5034505;28;20052;-77
2021/12/07 01:59:43;;;;;;;86.85;39.55;;;1.20;99.90;;;;;;5061664;28;20031;-77
2021/12/07 02:02:11;;;;;;;73.22;36.50;;;1.20;99.90;;;;;;5072658;28;20028;-77
2021/12/07 02:04:38;;;;;;;77.88;36.13;;;1.20;99.90;;;;;;5055365;28;20021;-77
2021/12/07 02:07:05;;;;;;;82.55;37.78;;;1.20;99.90;;;;;;5072685;28;20048;-77
2021/12/07 02:09:34;;;;;;;78.68;36.78;;;1.20;99.90;;;;;;5058106;28;20069;-77
2021/12/07 02:12:01;;;;;;;79.97;37.65;;;1.20;99.90;;;;;;5038219;28;20028;-78
2021/12/07 02:14:29;;;;;;;78.53;35.65;;;1.20;99.90;;;;;;5056360;28;20047;-77
2021/12/07 02:16:58;;;;;;;71.32;34.35;;;1.20;99.90;;;;;;5072770;28;20031;-77
2021/12/07 02:19:25;;;;;;;82.07;34.85;;;1.20;99.90;;;;;;5037075;28;20021;-77
2021/12/07 02:21:52;;;;;;;77.80;37.25;;;1.20;99.90;;;;;;5054957;28;20032;-77
2021/12/07 02:24:18;;;;;;;84.15;35.80;;;1.20;99.90;;;;;;5062006;28;20020;-77
2021/12/07 02:26:44;;;;;;;76.18;37.63;;;1.30;99.90;;;;;;5055420;28;20405;-77
2021/12/07 02:29:10;;;;;;;71.30;34.80;;;1.30;99.90;;;;;;5071813;28;20036;-77
2021/12/07 02:31:36;;;;;;;71.60;31.98;;;1.30;99.90;;;;;;5072462;28;20499;-77
2021/12/07 02:34:05;;;;;;;71.25;33.28;;;1.30;99.90;;;;;;5059440;28;20100;-77
2021/12/07 02:36:31;;;;;;;66.97;31.60;;;1.30;99.90;;;;;;5067752;28;20025;-77
2021/12/07 02:38:56;;;;;;;71.97;32.10;;;1.30;99.90;;;;;;5052634;28;20354;-77
2021/12/07 02:41:22;;;;;;;77.30;35.65;;;1.30;99.90;;;;;;5052921;28;20100;-77
2021/12/07 02:43:48;;;;;;;66.18;32.83;;;1.30;99.90;;;;;;5053855;28;20396;-77
2021/12/07 02:46:14;;;;;;;68.43;31.25;;;1.30;99.90;;;;;;5049286;28;20032;-77
2021/12/07 02:48:40;;;;;;;67.05;31.17;;;1.30;99.90;;;;;;5056056;28;20412;-77
2021/12/07 02:51:06;;;;;;;70.10;32.40;;;1.30;99.90;;;;;;5066370;28;20051;-77
2021/12/07 02:53:35;;;;;;;71.30;33.08;;;1.30;99.90;;;;;;5056435;28;20017;-77
2021/12/07 02:56:05;;;;;;;73.35;33.55;;;1.30;99.90;;;;;;5071930;28;20052;-77
2021/12/07 02:58:31;;;;;;;63.90;30.33;;;1.30;99.90;;;;;;5070814;28;20395;-77
2021/12/07 03:01:08;;;;;;;68.57;33.50;;;1.30;99.90;;;;;;5071851;28;20028;-77
2021/12/07 03:03:38;;;;;;;64.90;30.75;;;1.30;99.90;;;;;;5055240;28;20033;-77
2021/12/07 03:28:09;;;;;;;62.45;27.38;;;0.90;99.90;;;;;;5064367;28;20083;-77
2021/12/07 03:30:36;;;;;;;66.05;30.80;;;0.90;99.90;;;;;;5062819;28;20074;-77
2021/12/07 03:33:04;;;;;;;58.65;27.90;;;0.90;99.90;;;;;;5076146;28;20029;-77
2021/12/07 03:35:31;;;;;;;49.35;25.98;;;0.80;99.90;;;;;;5075445;28;20032;-77
2021/12/07 03:37:57;;;;;;;54.03;25.77;;;0.80;99.90;;;;;;5076092;28;20020;-77
2021/12/07 03:40:23;;;;;;;58.25;28.30;;;0.90;99.90;;;;;;5071192;28;20052;-77
2021/12/07 03:42:49;;;;;;;49.38;25.27;;;0.90;99.90;;;;;;5058508;28;20028;-77
2021/12/07 03:45:17;;;;;;;50.80;24.45;;;1.00;99.90;;;;;;5061139;28;20500;-77
2021/12/07 03:47:44;;;;;;;47.72;24.88;;;1.00;99.90;;;;;;5056415;28;20476;-77
2021/12/07 03:50:11;;;;;;;52.63;25.17;;;1.00;99.90;;;;;;5071723;28;20033;-77
2021/12/07 03:52:41;;;;;;;48.60;24.33;;;1.10;99.90;;;;;;5042186;28;20044;-77
2021/12/07 03:55:08;;;;;;;48.67;23.02;;;1.10;99.90;;;;;;5072289;28;20083;-77
2021/12/07 03:57:34;;;;;;;48.35;24.17;;;1.20;99.90;;;;;;5062434;28;20112;-77
2021/12/07 04:00:02;;;;;;;43.15;21.08;;;1.20;99.90;;;;;;5056401;28;20060;-77
2021/12/07 04:02:28;;;;;;;46.33;21.98;;;1.20;99.90;;;;;;5060627;28;20012;-77
2021/12/07 04:05:00;;;;;;;45.83;20.70;;;1.20;99.90;;;;;;5074859;28;20157;-77
2021/12/07 04:07:26;;;;;;;40.88;20.33;;;1.20;99.90;;;;;;5073064;28;20380;-77
2021/12/07 04:09:55;;;;;;;39.15;19.65;;;1.20;99.90;;;;;;5074638;28;20029;-77
2021/12/07 04:12:20;;;;;;;37.80;19.60;;;1.20;99.90;;;;;;5065798;28;20025;-77
2021/12/07 04:14:46;;;;;;;39.53;20.08;;;1.30;99.90;;;;;;5062556;28;20376;-77
2021/12/07 04:17:11;;;;;;;41.22;19.95;;;1.30;99.90;;;;;;5073567;28;20539;-78
2021/12/07 04:19:37;;;;;;;39.35;20.08;;;1.30;99.90;;;;;;5073915;28;20039;-77
2021/12/07 04:22:03;;;;;;;39.15;19.70;;;1.30;99.90;;;;;;5059683;28;20041;-77
2021/12/07 04:24:31;;;;;;;36.08;18.63;;;1.30;99.90;;;;;;5037613;28;20602;-78
2021/12/07 04:26:56;;;;;;;36.92;19.67;;;1.30;99.90;;;;;;5064810;28;20021;-77
2021/12/07 04:29:22;;;;;;;34.03;18.95;;;1.40;99.90;;;;;;5073076;28;20028;-77
2021/12/07 04:31:48;;;;;;;33.75;17.08;;;1.40;99.90;;;;;;5055899;28;20029;-76
2021/12/07 04:34:14;;;;;;;31.38;17.63;;;1.40;99.90;;;;;;5055418;28;20053;-77
2021/12/07 04:36:39;;;;;;;34.25;18.15;;;1.40;99.90;;;;;;5069183;28;20043;-77
2021/12/07 04:39:05;;;;;;;32.35;17.85;;;1.50;99.90;;;;;;5064239;28;20024;-77
2021/12/07 04:41:34;;;;;;;38.65;20.38;;;1.50;99.90;;;;;;5073657;28;20075;-77
2021/12/07 04:44:01;;;;;;;30.50;17.35;;;1.40;99.90;;;;;;5055159;28;20120;-77
2021/12/07 04:46:35;;;;;;;36.80;17.83;;;1.50;99.90;;;;;;5062224;28;20095;-77
2021/12/07 04:57:37;;;;;;;34.75;17.27;;;1.50;99.90;;;;;;5070071;28;20078;-77
2021/12/07 04:57:46;;;;;;;39.70;18.67;;;1.50;99.90;;;;;;5067435;28;20032;-77
2021/12/07 05:00:18;;;;;;;37.83;17.45;;;1.50;99.90;;;;;;5073507;28;20024;-77
2021/12/07 05:02:51;;;;;;;34.25;18.38;;;1.50;99.90;;;;;;5074511;28;20032;-77
2021/12/07 05:05:17;;;;;;;34.30;18.60;;;1.50;99.90;;;;;;5066114;28;20033;-77
2021/12/07 05:07:49;;;;;;;35.38;17.80;;;1.60;99.90;;;;;;5054874;28;20025;-77
2021/12/07 05:13:20;;;;;;;29.55;17.25;;;1.60;99.90;;;;;;5062928;28;20061;-77
2021/12/07 05:16:02;;;;;;;34.65;18.40;;;1.60;99.90;;;;;;5054088;28;20032;-77
2021/12/07 05:23:55;;;;;;;29.25;16.95;;;1.50;99.90;;;;;;5054658;28;20408;-77
2021/12/07 05:37:40;;;;;;;31.25;17.30;;;1.60;99.90;;;;;;5060372;28;20036;-77
2021/12/07 05:37:45;;;;;;;31.88;17.98;;;1.60;99.90;;;;;;5053629;28;20477;-77
2021/12/07 05:40:15;;;;;;;26.88;16.30;;;1.50;99.90;;;;;;5070240;28;20031;-77
2021/12/07 05:42:42;;;;;;;30.45;17.63;;;1.60;99.90;;;;;;5072987;28;20071;-78
2021/12/07 05:45:11;;;;;;;29.02;16.23;;;1.60;99.90;;;;;;5071881;28;20074;-78
2021/12/07 05:47:38;;;;;;;28.15;16.65;;;1.50;99.90;;;;;;5070835;28;20044;-77
2021/12/07 05:50:07;;;;;;;30.95;16.75;;;1.50;99.90;;;;;;5054004;28;20381;-77
2021/12/07 05:52:34;;;;;;;26.90;16.55;;;1.50;99.90;;;;;;5064669;28;20073;-77
2021/12/07 05:54:59;;;;;;;27.70;16.92;;;1.50;99.90;;;;;;5072736;28;20028;-77
2021/12/07 05:57:25;;;;;;;28.75;16.08;;;1.60;99.90;;;;;;5071969;28;20052;-77
2021/12/07 05:59:51;;;;;;;28.67;16.30;;;1.60;99.90;;;;;;5060162;28;20017;-77
2021/12/07 06:02:16;;;;;;;30.83;16.00;;;1.50;99.90;;;;;;5062477;28;20028;-77
2021/12/07 06:04:43;;;;;;;22.33;13.55;;;1.60;99.90;;;;;;5058170;28;20036;-77
2021/12/07 06:07:10;;;;;;;26.60;17.25;;;1.60;99.90;;;;;;5069345;28;20043;-77
2021/12/07 06:09:36;;;;;;;26.10;15.50;;;1.60;99.90;;;;;;5054641;28;20420;-77
2021/12/07 06:12:03;;;;;;;30.25;17.73;;;1.60;99.90;;;;;;5053245;28;20037;-78
2021/12/07 06:14:33;;;;;;;33.35;17.20;;;1.60;99.90;;;;;;5052963;28;20040;-77
2021/12/07 06:16:59;;;;;;;31.33;18.05;;;1.60;99.90;;;;;;5057889;28;20032;-77
2021/12/07 06:19:25;;;;;;;28.42;16.73;;;1.60;99.90;;;;;;5065866;28;20097;-77
2021/12/07 06:21:51;;;;;;;29.98;18.73;;;1.60;99.90;;;;;;5071568;28;20724;-77
2021/12/07 06:24:17;;;;;;;32.38;17.52;;;1.70;99.90;;;;;;5072161;28;20103;-77
2021/12/07 06:26:43;;;;;;;31.08;18.17;;;1.60;99.90;;;;;;5067243;28;20090;-77
2021/12/07 06:29:09;;;;;;;28.63;17.48;;;1.70;99.90;;;;;;5054113;28;20024;-76
2021/12/07 06:31:34;;;;;;;29.77;17.38;;;1.70;99.90;;;;;;5060385;28;20467;-77
2021/12/07 06:34:01;;;;;;;25.48;15.48;;;1.60;99.90;;;;;;5053083;28;20086;-77
2021/12/07 06:36:26;;;;;;;29.88;17.40;;;1.70;99.90;;;;;;5052759;28;20021;-77
2021/12/07 06:38:52;;;;;;;26.40;17.13;;;1.70;99.90;;;;;;5034856;28;20116;-77
2021/12/07 06:41:18;;;;;;;31.45;16.88;;;1.70;99.90;;;;;;5071146;28;20472;-77
2021/12/07 06:43:44;;;;;;;31.15;17.45;;;1.70;99.90;;;;;;5063007;28;20024;-77
2021/12/07 06:46:10;;;;;;;26.25;15.38;;;1.70;99.90;;;;;;5083968;28;20107;-77
2021/12/07 06:48:36;;;;;;;26.90;15.85;;;1.70;99.90;;;;;;5076391;28;20029;-77
2021/12/07 06:51:03;;;;;;;26.80;15.48;;;1.70;99.90;;;;;;5070132;28;20494;-77
2021/12/07 06:53:35;;;;;;;23.08;15.63;;;1.80;99.90;;;;;;5070915;28;20542;-76
2021/12/07 06:56:03;;;;;;;26.85;16.83;;;1.80;99.90;;;;;;5057825;28;20043;-77
2021/12/07 06:58:29;;;;;;;25.23;15.60;;;1.80;99.90;;;;;;5072470;28;20044;-77
2021/12/07 07:00:56;;;;;;;25.90;14.80;;;1.80;99.90;;;;;;5057223;28;20365;-77
2021/12/07 07:03:21;;;;;;;22.75;15.30;;;1.80;99.90;;;;;;5071973;28;20472;-77
2021/12/07 07:05:47;;;;;;;30.10;17.20;;;1.80;99.90;;;;;;5072556;28;20150;-77
2021/12/07 07:08:12;;;;;;;27.90;15.68;;;1.80;99.90;;;;;;5048734;28;20017;-77
2021/12/07 07:10:38;;;;;;;24.30;15.40;;;1.80;99.90;;;;;;5066996;28;20021;-77
2021/12/07 07:13:04;;;;;;;26.45;15.93;;;1.80;99.90;;;;;;5052503;28;20347;-77
2021/12/07 07:15:29;;;;;;;23.90;15.48;;;1.90;99.90;;;;;;5061462;28;20477;-77
2021/12/07 07:17:55;;;;;;;27.63;16.33;;;1.80;99.90;;;;;;5052474;28;20469;-77
2021/12/07 07:20:22;;;;;;;24.42;15.68;;;1.90;99.90;;;;;;5069064;28;20070;-77
2021/12/07 07:22:48;;;;;;;25.52;14.63;;;1.90;99.90;;;;;;5063131;28;20361;-77
2021/12/07 07:25:14;;;;;;;27.08;15.68;;;1.90;99.90;;;;;;5068219;28;20013;-77
2021/12/07 07:27:40;;;;;;;23.05;14.70;;;2.00;99.90;;;;;;5052274;28;20043;-77
2021/12/07 07:30:09;;;;;;;26.67;15.10;;;2.00;99.90;;;;;;5053446;28;20159;-77
2021/12/07 07:32:34;;;;;;;21.98;14.98;;;2.00;99.90;;;;;;5053854;28;20035;-76
2021/12/07 07:35:00;;;;;;;28.55;16.35;;;2.00;99.90;;;;;;5072132;28;20032;-77
2021/12/07 07:37:26;;;;;;;24.45;14.20;;;2.00;99.90;;;;;;5071896;28;20032;-77
2021/12/07 07:39:52;;;;;;;29.63;14.90;;;2.10;99.90;;;;;;5064289;28;20033;-77
2021/12/07 07:42:18;;;;;;;22.05;13.50;;;2.10;99.90;;;;;;5057811;28;20059;-77
2021/12/07 07:44:44;;;;;;;23.48;15.05;;;2.10;99.90;;;;;;5044849;28;20404;-77
2021/12/07 07:47:09;;;;;;;22.42;13.90;;;2.10;99.90;;;;;;5068430;28;20029;-77
2021/12/07 07:49:35;;;;;;;21.13;13.25;;;2.10;99.90;;;;;;5064099;28;20020;-77
2021/12/07 07:52:00;;;;;;;24.70;15.05;;;2.10;99.90;;;;;;5059595;28;20028;-77
2021/12/07 07:54:28;;;;;;;22.00;14.00;;;2.10;99.90;;;;;;5058584;28;20044;-77
2021/12/07 07:56:54;;;;;;;24.45;14.43;;;2.10;99.90;;;;;;5063566;28;20122;-77
2021/12/07 07:59:19;;;;;;;25.73;13.43;;;2.10;99.90;;;;;;5075361;28;20507;-77
2021/12/07 08:01:45;;;;;;;26.70;13.38;;;2.10;99.90;;;;;;5075545;28;20025;-77
2021/12/07 08:04:11;;;;;;;20.33;13.40;;;2.10;99.90;;;;;;5075013;28;20082;-77
2021/12/07 08:06:36;;;;;;;21.90;13.13;;;2.20;99.90;;;;;;5055594;28;20112;-77
2021/12/07 08:09:03;;;;;;;19.15;12.50;;;2.20;99.90;;;;;;5069429;28;20029;-77
2021/12/07 08:11:29;;;;;;;21.15;13.48;;;2.20;99.90;;;;;;5075611;28;20017;-77
2021/12/07 08:13:55;;;;;;;20.33;12.00;;;2.20;99.90;;;;;;5091385;28;20017;-77
2021/12/07 08:16:21;;;;;;;20.92;12.55;;;2.20;99.90;;;;;;5075133;28;20043;-77
2021/12/07 08:18:50;;;;;;;19.85;13.20;;;2.20;99.90;;;;;;5075403;28;20028;-77
2021/12/07 08:21:17;;;;;;;16.73;11.07;;;2.20;99.90;;;;;;5075237;28;20531;-77
2021/12/07 08:23:43;;;;;;;20.90;13.20;;;2.30;99.90;;;;;;5057252;28;20025;-77
2021/12/07 08:26:11;;;;;;;13.63;9.52;;;2.30;99.90;;;;;;5075256;28;20012;-77
2021/12/07 08:28:38;;;;;;;18.35;10.85;;;2.30;99.90;;;;;;5075270;28;20491;-77
2021/12/07 08:31:04;;;;;;;17.23;11.15;;;2.30;99.90;;;;;;5056629;28;20102;-77
2021/12/07 08:33:30;;;;;;;14.05;10.73;;;2.30;99.90;;;;;;5075401;28;20109;-77
2021/12/07 08:35:56;;;;;;;18.67;11.57;;;2.30;99.90;;;;;;5073006;28;20032;-77
2021/12/07 08:38:22;;;;;;;19.70;11.60;;;2.30;99.90;;;;;;5055056;28;20508;-77
2021/12/07 08:40:53;;;;;;;16.92;11.55;;;2.30;99.90;;;;;;5066717;28;20025;-77
2021/12/07 08:43:23;;;;;;;18.83;12.20;;;2.30;99.90;;;;;;5069477;28;20045;-77
2021/12/07 08:45:49;;;;;;;19.83;13.23;;;2.30;99.90;;;;;;5058545;28;20048;-77
2021/12/07 08:48:18;;;;;;;20.05;13.23;;;2.40;99.90;;;;;;5061041;28;20400;-77
2021/12/07 08:50:44;;;;;;;19.77;11.77;;;2.40;99.90;;;;;;5065271;28;20205;-77
2021/12/07 08:53:13;;;;;;;19.02;11.07;;;2.40;99.90;;;;;;5070696;28;20028;-77
2021/12/07 09:01:10;;;;;;;19.65;11.18;;;2.50;99.90;;;;;;5082859;28;20028;-77
2021/12/07 09:03:36;;;;;;;16.98;11.20;;;2.50;99.90;;;;;;5073465;28;20496;-77
2021/12/07 09:06:02;;;;;;;19.75;10.82;;;2.50;99.90;;;;;;5074495;28;20024;-77
2021/12/07 09:08:28;;;;;;;17.23;10.52;;;2.60;99.90;;;;;;5051315;28;20025;-77
2021/12/07 09:10:55;;;;;;;27.92;11.63;;;2.60;99.90;;;;;;5054314;28;20416;-77
2021/12/07 09:13:23;;;;;;;16.48;9.55;;;2.60;99.90;;;;;;5036764;28;20033;-77
2021/12/07 09:15:50;;;;;;;12.90;9.45;;;2.60;99.90;;;;;;5062870;28;20473;-77
2021/12/07 09:18:15;;;;;;;17.67;10.45;;;2.60;99.90;;;;;;5073198;28;20024;-77
2021/12/07 09:20:43;;;;;;;13.30;8.82;;;2.60;99.90;;;;;;5064798;28;20524;-77
2021/12/07 09:23:09;;;;;;;15.95;9.68;;;2.60;99.90;;;;;;5077935;28;20024;-77
2021/12/07 09:25:35;;;;;;;13.48;9.40;;;2.70;99.90;;;;;;5060958;28;20108;-77
2021/12/07 09:28:01;;;;;;;14.10;9.20;;;2.70;99.90;;;;;;5062713;28;20028;-77
2021/12/07 09:30:27;;;;;;;13.65;9.95;;;2.70;99.90;;;;;;5044978;28;20111;-78
2021/12/07 09:32:53;;;;;;;15.52;10.27;;;2.70;99.90;;;;;;5073636;28;20108;-77
2021/12/07 09:35:21;;;;;;;15.02;9.38;;;2.70;99.90;;;;;;5064088;28;20505;-77
2021/12/07 09:37:48;;;;;;;15.63;9.55;;;2.80;99.90;;;;;;5071082;28;20033;-78
2021/12/07 09:40:16;;;;;;;16.35;10.90;;;2.70;99.90;;;;;;5073547;28;20021;-77
2021/12/07 09:42:42;;;;;;;17.00;11.18;;;2.80;99.90;;;;;;5063882;28;20017;-77
2021/12/07 09:45:09;;;;;;;13.85;9.25;;;2.80;99.90;;;;;;5053599;28;20068;-77
2021/12/07 09:47:35;;;;;;;14.95;10.35;;;2.80;99.90;;;;;;5053325;28;20068;-77
2021/12/07 09:50:04;;;;;;;15.05;10.02;;;2.80;99.90;;;;;;5036029;28;20321;-77
2021/12/07 09:52:30;;;;;;;16.25;11.05;;;2.80;99.90;;;;;;5056695;28;20024;-78
2021/12/07 09:54:56;;;;;;;15.25;10.00;;;2.80;99.90;;;;;;5069542;28;20036;-77
2021/12/07 09:57:22;;;;;;;17.00;12.13;;;2.90;99.90;;;;;;5053332;28;20108;-77
2021/12/07 09:59:49;;;;;;;14.10;9.23;;;3.00;99.90;;;;;;5048265;28;20046;-77
2021/12/07 10:02:16;;;;;;;13.95;9.65;;;3.10;99.90;;;;;;5070685;28;20169;-77
2021/12/07 10:04:42;;;;;;;16.30;9.80;;;3.10;99.90;;;;;;5035273;28;20025;-77
2021/12/07 10:07:08;;;;;;;15.15;9.20;;;3.10;99.90;;;;;;5054608;28;20496;-77
2021/12/07 10:09:36;;;;;;;15.63;10.35;;;3.10;99.90;;;;;;5072838;28;20070;-79
2021/12/07 10:12:03;;;;;;;13.40;9.32;;;3.10;99.90;;;;;;5072193;28;20027;-77
2021/12/07 10:14:38;;;;;;;16.48;9.93;;;3.10;99.90;;;;;;5052860;28;20025;-78
2021/12/07 10:17:04;;;;;;;13.68;10.18;;;3.10;99.90;;;;;;5053257;28;20028;-77
2021/12/07 10:19:35;;;;;;;14.55;9.30;;;3.10;99.90;;;;;;5035110;28;20079;-77
2021/12/07 10:22:07;;;;;;;15.32;9.15;;;3.10;99.90;;;;;;5070721;28;20060;-77
2021/12/07 10:24:38;;;;;;;12.27;8.65;;;3.10;99.90;;;;;;5072623;28;20028;-77
2021/12/07 10:27:05;;;;;;;12.57;8.63;;;3.10;99.90;;;;;;5057338;28;20064;-77
2021/12/07 10:29:31;;;;;;;14.43;9.45;;;3.10;99.90;;;;;;5053323;28;20468;-77
2021/12/07 10:32:02;;;;;;;12.20;8.05;;;3.10;99.90;;;;;;5054813;28;20052;-79
2021/12/07 10:34:33;;;;;;;12.55;8.70;;;3.20;99.90;;;;;;5056507;28;20460;-77
2021/12/07 10:37:14;;;;;;;12.02;7.68;;;3.20;99.90;;;;;;5034805;28;20075;-77
2021/12/07 10:39:43;;;;;;;11.57;7.80;;;3.20;99.90;;;;;;5052931;28;20053;-77
2021/12/07 10:42:14;;;;;;;9.13;7.28;;;3.20;99.90;;;;;;5052724;28;20024;-77
2021/12/07 10:44:41;;;;;;;9.95;7.68;;;3.20;99.90;;;;;;5050875;28;20123;-77
2021/12/07 10:47:12;;;;;;;11.90;7.57;;;3.20;99.90;;;;;;5072022;28;20039;-77
2021/12/07 10:49:46;;;;;;;10.93;7.45;;;3.20;99.90;;;;;;5072742;28;20021;-77
2021/12/07 10:52:29;;;;;;;10.33;6.80;;;3.30;99.90;;;;;;5069692;28;20083;-77
2021/12/07 10:55:00;;;;;;;7.63;6.43;;;3.30;99.90;;;;;;5066422;28;20609;-77
2021/12/07 10:57:34;;;;;;;11.48;7.85;;;3.40;99.90;;;;;;5058213;28;20504;-77
2021/12/07 11:00:08;;;;;;;8.38;6.38;;;3.40;99.90;;;;;;5053378;28;20021;-79
2021/12/07 11:02:37;;;;;;;14.20;8.05;;;3.40;99.90;;;;;;5059131;28;20031;-79
2021/12/07 11:05:10;;;;;;;10.52;6.97;;;3.40;99.90;;;;;;5066616;28;20020;-77
2021/12/07 11:07:36;;;;;;;11.95;7.30;;;3.50;99.90;;;;;;5059388;28;20052;-78
2021/12/07 11:12:39;;;;;;;9.18;6.55;;;3.40;99.90;;;;;;5070987;28;20063;-77
2021/12/07 11:15:13;;;;;;;12.05;7.85;;;3.40;99.90;;;;;;5042647;28;20053;-77
2021/12/07 11:17:39;;;;;;;11.05;7.15;;;3.50;99.90;;;;;;5052780;28;20087;-77
2021/12/07 11:20:07;;;;;;;12.02;7.00;;;3.50;99.90;;;;;;5056740;28;20033;-77
2021/12/07 11:22:38;;;;;;;8.50;6.70;;;3.50;99.90;;;;;;5070203;28;20028;-77
2021/12/07 11:25:06;;;;;;;14.25;8.93;;;3.50;99.90;;;;;;5061697;28;20029;-78
2021/12/07 11:30:25;;;;;;;10.32;6.45;;;3.50;99.90;;;;;;5055354;28;20043;-77
2021/12/07 11:32:55;;;;;;;8.82;6.30;;;3.50;99.90;;;;;;5073648;28;20028;-77
2021/12/07 11:35:26;;;;;;;8.57;6.22;;;3.50;99.90;;;;;;5065339;28;20454;-77
2021/12/07 11:37:57;;;;;;;9.50;6.68;;;3.60;99.90;;;;;;5065145;28;20031;-77
2021/12/07 11:40:29;;;;;;;9.07;6.53;;;3.60;99.90;;;;;;5064691;28;20028;-77
2021/12/07 11:42:55;;;;;;;11.18;7.15;;;3.60;99.90;;;;;;5071201;28;20025;-77
2021/12/07 11:45:27;;;;;;;9.60;6.95;;;3.60;99.90;;;;;;5057729;28;20518;-77
2021/12/07 11:47:59;;;;;;;9.15;5.80;;;3.60;99.90;;;;;;5059972;28;20029;-77
2021/12/07 11:50:49;;;;;;;8.70;6.43;;;3.60;99.90;;;;;;5064783;28;20545;-77
2021/12/07 11:53:23;;;;;;;8.25;5.90;;;3.60;99.90;;;;;;5065519;28;20470;-77
2021/12/07 11:55:52;;;;;;;9.75;5.55;;;3.60;99.90;;;;;;5057109;28;20037;-77
2021/12/07 11:58:18;;;;;;;9.60;6.22;;;3.60;99.90;;;;;;5062223;28;20036;-77
2021/12/07 12:00:50;;;;;;;9.68;7.05;;;3.60;99.90;;;;;;5049788;28;20025;-77
2021/12/07 12:03:21;;;;;;;11.40;7.30;;;3.60;99.90;;;;;;5056276;28;20021;-77
2021/12/07 12:05:48;;;;;;;12.43;8.00;;;3.60;99.90;;;;;;5071081;28;20020;-77
2021/12/07 12:08:19;;;;;;;12.95;7.50;;;3.60;99.90;;;;;;5074471;28;20044;-77
2021/12/07 12:10:56;;;;;;;14.25;8.23;;;3.50;99.90;;;;;;5061000;28;20033;-77
2021/12/07 12:13:43;;;;;;;11.35;7.97;;;3.60;99.90;;;;;;5045828;28;20115;-77
2021/12/07 12:16:31;;;;;;;12.13;8.02;;;3.60;99.90;;;;;;5053056;28;20037;-77
2021/12/07 12:19:13;;;;;;;12.85;8.93;;;3.60;99.90;;;;;;5054996;28;20025;-76
2021/12/07 12:21:53;;;;;;;11.25;8.13;;;3.60;99.90;;;;;;5059070;28;20052;-77
2021/12/07 12:24:45;;;;;;;15.05;8.80;;;3.60;99.90;;;;;;5063008;28;20052;-77
2021/12/07 12:27:16;;;;;;;11.70;7.90;;;3.60;99.90;;;;;;5059246;28;20033;-78
2021/12/07 12:29:44;;;;;;;14.10;8.65;;;3.60;99.90;;;;;;5065803;28;20032;-77
2021/12/07 12:32:11;;;;;;;12.45;8.38;;;3.60;99.90;;;;;;5063099;28;20504;-77
2021/12/07 12:34:50;;;;;;;9.98;7.60;;;3.60;99.90;;;;;;5055077;28;20108;-78
2021/12/07 12:37:24;;;;;;;10.20;7.68;;;3.60;99.90;;;;;;5055267;28;20115;-78
2021/12/07 12:39:55;;;;;;;12.85;8.50;;;3.60;99.90;;;;;;5054965;28;20074;-77
2021/12/07 12:42:43;;;;;;;13.43;9.50;;;3.60;99.90;;;;;;5059191;28;20059;-77
2021/12/07 12:45:21;;;;;;;19.67;9.25;;;3.70;99.90;;;;;;5063691;28;20086;-77
2021/12/07 12:48:07;;;;;;;11.95;7.85;;;3.80;99.90;;;;;;5074282;28;20038;-78
2021/12/07 12:50:49;;;;;;;10.45;7.68;;;3.80;99.90;;;;;;5068642;28;20029;-77
2021/12/07 12:53:27;;;;;;;10.10;7.25;;;3.80;99.90;;;;;;5038589;28;20032;-77
2021/12/07 12:55:55;;;;;;;9.20;6.80;;;3.70;99.90;;;;;;5048084;28;20037;-78
2021/12/07 12:58:28;;;;;;;9.55;6.65;;;3.70;99.90;;;;;;5036832;28;20045;-77
2021/12/07 13:01:19;;;;;;;10.45;6.57;;;3.70;99.90;;;;;;5057649;28;20023;-78
2021/12/07 13:03:53;;;;;;;10.85;6.78;;;3.70;99.90;;;;;;5062124;28;20055;-78
2021/12/07 13:06:41;;;;;;;10.00;7.55;;;3.70;99.90;;;;;;5066140;28;20358;-77
2021/12/07 13:09:21;;;;;;;11.45;7.30;;;3.70;99.90;;;;;;5060656;28;20033;-78
2021/12/07 13:11:52;;;;;;;9.57;6.43;;;3.70;99.90;;;;;;5061871;28;20102;-77
2021/12/07 13:14:23;;;;;;;8.73;6.45;;;3.70;99.90;;;;;;5077210;28;20486;-78
2021/12/07 13:17:13;;;;;;;8.63;6.15;;;3.70;99.90;;;;;;5082721;28;20029;-78
2021/12/07 13:20:16;;;;;;;10.07;7.30;;;3.70;99.90;;;;;;5056216;28;20024;-77
2021/12/07 13:23:09;;;;;;;10.10;6.63;;;3.70;99.90;;;;;;5058627;28;20033;-77
2021/12/07 13:25:37;;;;;;;10.82;6.72;;;3.70;99.90;;;;;;5054382;28;20021;-78
2021/12/07 13:28:24;;;;;;;11.02;7.75;;;3.60;99.90;;;;;;5056303;28;20032;-77
2021/12/07 13:31:21;;;;;;;10.60;7.20;;;3.60;99.90;;;;;;5054634;28;20392;-77
2021/12/07 13:33:51;;;;;;;;;;;3.60;99.90;;;;;;5059906;28;20668;-77
2021/12/07 13:36:53;;;;;;;12.63;7.35;;;3.70;99.90;;;;;;5061192;28;19944;-77
2021/12/07 13:39:23;;;;;;;9.75;7.20;;;3.60;99.90;;;;;;5072612;28;20062;-77
2021/12/07 13:41:58;;;;;;;10.85;7.32;;;3.70;99.90;;;;;;5073015;28;20044;-78
2021/12/07 13:44:24;;;;;;;12.52;7.65;;;3.60;99.90;;;;;;5056253;28;20381;-78
2021/12/07 13:47:03;;;;;;;13.52;7.93;;;3.60;99.90;;;;;;5064266;28;20039;-77
2021/12/07 13:49:31;;;;;;;10.68;7.78;;;3.70;99.90;;;;;;5053775;28;20017;-78
2021/12/07 13:52:01;;;;;;;11.70;7.22;;;3.60;99.90;;;;;;5054064;28;20028;-77
2021/12/07 13:54:27;;;;;;;10.95;7.45;;;3.60;99.90;;;;;;5055278;28;20055;-78
2021/12/07 13:56:53;;;;;;;10.60;7.57;;;3.50;99.90;;;;;;5034990;28;20037;-77
2021/12/07 13:59:23;;;;;;;12.48;7.32;;;3.50;99.90;;;;;;5057778;28;20025;-78
2021/12/07 14:01:55;;;;;;;11.23;7.90;;;3.40;99.90;;;;;;5066084;28;20025;-78
2021/12/07 14:04:27;;;;;;;9.85;6.78;;;3.50;99.90;;;;;;5060864;28;20025;-77
2021/12/07 14:06:53;;;;;;;9.98;7.13;;;3.50;99.90;;;;;;5071501;28;20471;-77
2021/12/07 14:09:19;;;;;;;9.80;6.45;;;3.40;99.90;;;;;;5093684;28;20076;-78
2021/12/07 14:11:54;;;;;;;11.23;8.07;;;3.40;99.90;;;;;;5078985;28;20020;-78
2021/12/07 14:14:20;;;;;;;10.87;7.57;;;3.50;99.90;;;;;;5060945;28;20017;-78
2021/12/07 14:16:47;;;;;;;9.43;7.05;;;3.40;99.90;;;;;;5069324;28;20035;-78
2021/12/07 14:19:12;;;;;;;11.55;7.60;;;3.40;99.90;;;;;;5042358;28;20021;-78
2021/12/07 14:21:39;;;;;;;9.75;6.70;;;3.40;99.90;;;;;;5060462;28;20032;-78
2021/12/07 14:24:14;;;;;;;12.10;6.70;;;3.50;99.90;;;;;;5069120;28;20103;-78
2021/12/07 14:26:41;;;;;;;9.95;7.47;;;3.50;99.90;;;;;;5061557;28;20056;-78
2021/12/07 14:29:19;;;;;;;8.95;6.85;;;3.50;99.90;;;;;;5057440;28;20095;-78